Carthage, New York
Current Conditions -  °F | °C
As of 1:58 PM on Thursday 23 Oct 2014 (Local Time) from KGTB Reporting Station
Overcast Overcast  
Wind Chill: 51°   Ceiling: 2800
Heat Index: 51°   Visibility: 10mi
Dew Point: 38°   Wind: 10mph
Humidity: 60%   Direction: 20°NNE
Pressure: 29.95"   Gusts: NA
Location:  43.98°N, 75.61°W
Report Text: KGTB 231758Z AUTO 02009KT 10SM OVC028 11/03 A2995 RMK AO2 SLP145 6//// T01060032 57016
Loading
Personal Weather Stations






























Interactive Weather Map
Tropical Storm Tracking
New forecast layout! Learn more

10-Day Weather Forecast

Advertisements
Track Severe Weather on mobile